Avoca, Minnesota
Current Conditions -  °F | °C
As of 6:16 PM on Thursday 27 Nov 2014 (Local Time) from KDVP Reporting Station
Overcast Overcast  
Wind Chill: -7°   Ceiling: 7500
Heat Index:   Visibility: 10mi
Dew Point:   Wind: 13mph
Humidity: 70%   Direction: 140°SE
Pressure: 30.23"   Gusts: NA
Location:  43.95°N, 95.65°W
Report Text: KDVP 280016Z AUTO 14011KT 10SM SCT050 OVC075 M13/M17 A3023 RMK AO2 T11301175
Loading
Personal Weather Stations






























Interactive Weather Map New forecast layout! Learn more

10-Day Weather Forecast

Advertisements
Track Severe Weather on mobile